Time;durP1;ratioP1;P1;durP2;ratioP2;P2;SDS_P1;SDS_P2;PMS_P1;PMS_P2;Temp;Humidity;BMP_temperature;BMP_pressure;BME280_temperature;BME280_humidity;BME280_pressure;Samples;Min_cycle;Max_cycle;Signal;HPM_P1;HPM_P2
2021/03/14 00:01:21;;;;;;;2.28;1.67;;;1.90;99.90;;;;;;5072146;28;20489;-88
2021/03/14 00:03:50;;;;;;;2.67;1.90;;;2.00;99.90;;;;;;5056504;28;20456;-86
2021/03/14 00:06:20;;;;;;;2.42;1.73;;;2.00;99.90;;;;;;5041157;28;20075;-86
2021/03/14 00:08:46;;;;;;;4.32;2.00;;;2.10;99.90;;;;;;5050911;28;20392;-86
2021/03/14 00:11:13;;;;;;;2.67;1.70;;;2.10;99.90;;;;;;5051862;28;20110;-88
2021/03/14 00:13:40;;;;;;;2.65;1.63;;;2.10;99.90;;;;;;5062302;28;20045;-87
2021/03/14 00:16:09;;;;;;;2.45;1.50;;;2.10;99.90;;;;;;5045706;28;20048;-85
2021/03/14 00:18:41;;;;;;;1.25;1.15;;;2.10;99.90;;;;;;5064374;28;20382;-86
2021/03/14 00:21:10;;;;;;;2.38;1.58;;;2.20;99.90;;;;;;5039280;28;20041;-86
2021/03/14 00:23:37;;;;;;;2.90;1.90;;;2.10;99.90;;;;;;5063165;28;20040;-87
2021/03/14 00:26:05;;;;;;;1.65;1.55;;;2.20;99.90;;;;;;4999285;28;20041;-88
2021/03/14 00:28:41;;;;;;;1.75;1.60;;;2.20;99.90;;;;;;5040785;28;20102;-86
2021/03/14 00:31:08;;;;;;;3.92;1.52;;;2.10;99.90;;;;;;5064275;28;20044;-85
2021/03/14 00:33:41;;;;;;;1.90;1.50;;;2.10;99.90;;;;;;5061748;28;20044;-86
2021/03/14 00:36:08;;;;;;;1.65;1.30;;;2.20;99.90;;;;;;5061673;28;20068;-87
2021/03/14 00:38:44;;;;;;;2.88;1.85;;;2.20;99.90;;;;;;5041024;28;20049;-87
2021/03/14 00:41:11;;;;;;;2.85;1.48;;;2.20;99.90;;;;;;5035740;28;20041;-88
2021/03/14 00:43:41;;;;;;;2.33;1.33;;;2.00;99.90;;;;;;5037844;28;20522;-90
2021/03/14 00:46:08;;;;;;;1.30;1.10;;;1.70;99.90;;;;;;5047967;28;20514;-88
2021/03/14 00:48:37;;;;;;;2.70;1.20;;;1.40;99.90;;;;;;5054534;28;20071;-88
2021/03/14 00:51:03;;;;;;;2.25;1.42;;;1.20;99.90;;;;;;5041416;28;20041;-87
2021/03/14 00:53:45;;;;;;;1.25;1.15;;;1.10;99.90;;;;;;5050914;28;20037;-89
2021/03/14 00:56:13;;;;;;;1.17;0.98;;;1.00;99.90;;;;;;5027946;28;20068;-88
2021/03/14 00:58:41;;;;;;;1.17;1.10;;;1.00;99.90;;;;;;5017384;28;20077;-88
2021/03/14 01:01:08;;;;;;;1.23;1.10;;;1.00;99.90;;;;;;5053688;28;20064;-86
2021/03/14 01:03:35;;;;;;;1.45;1.17;;;0.90;99.90;;;;;;5020996;28;20049;-87
2021/03/14 01:06:05;;;;;;;1.00;1.00;;;0.90;99.90;;;;;;5011589;28;20037;-87
2021/03/14 01:08:31;;;;;;;1.10;1.10;;;0.90;99.90;;;;;;5026283;28;20061;-88
2021/03/14 01:10:59;;;;;;;1.08;1.08;;;1.00;99.90;;;;;;5009615;28;20072;-86
2021/03/14 01:13:27;;;;;;;1.35;1.25;;;1.00;99.90;;;;;;5036101;28;20049;-86
2021/03/14 01:15:54;;;;;;;1.33;1.27;;;1.00;99.90;;;;;;5023166;28;20055;-87
2021/03/14 01:18:20;;;;;;;1.10;1.10;;;1.10;99.90;;;;;;5034226;28;20053;-86
2021/03/14 01:20:50;;;;;;;1.20;1.20;;;1.20;99.90;;;;;;5014610;28;20432;-86
2021/03/14 01:23:17;;;;;;;1.27;1.15;;;1.30;99.90;;;;;;5020056;28;20383;-86
2021/03/14 01:25:43;;;;;;;1.40;1.30;;;1.30;99.90;;;;;;5034344;28;20045;-88
2021/03/14 01:28:10;;;;;;;1.95;1.08;;;1.40;99.90;;;;;;5041194;28;20507;-87
2021/03/14 01:30:40;;;;;;;1.20;1.10;;;1.40;99.90;;;;;;5004677;28;20053;-86
2021/03/14 01:33:06;;;;;;;1.10;1.10;;;1.40;99.90;;;;;;5017135;28;20115;-88
2021/03/14 01:35:37;;;;;;;2.67;1.17;;;1.40;99.90;;;;;;5041306;28;20053;-86
2021/03/14 01:38:04;;;;;;;1.08;1.00;;;1.40;99.90;;;;;;5016063;28;20050;-87
2021/03/14 01:40:44;;;;;;;0.95;0.95;;;1.40;99.90;;;;;;5020366;28;20056;-87
2021/03/14 01:43:11;;;;;;;0.80;0.80;;;1.40;99.90;;;;;;5024578;28;20061;-89
2021/03/14 01:45:38;;;;;;;0.80;0.80;;;1.40;99.90;;;;;;4992420;28;20044;-87
2021/03/14 01:48:06;;;;;;;1.33;1.23;;;1.40;99.90;;;;;;5024980;28;20144;-86
2021/03/14 01:50:37;;;;;;;1.50;1.40;;;1.50;99.90;;;;;;5024045;28;20136;-89
2021/03/14 01:53:09;;;;;;;1.50;1.10;;;1.40;99.90;;;;;;5027699;28;20072;-88
2021/03/14 01:55:39;;;;;;;1.25;1.10;;;1.40;99.90;;;;;;4994204;28;20403;-86
2021/03/14 01:58:05;;;;;;;1.00;1.00;;;1.40;99.90;;;;;;5029686;28;20530;-86
2021/03/14 02:00:39;;;;;;;0.82;0.82;;;1.50;99.90;;;;;;5045370;28;20439;-86
2021/03/14 02:03:06;;;;;;;1.00;1.00;;;1.50;99.90;;;;;;5044774;28;20383;-85
2021/03/14 02:05:38;;;;;;;0.93;0.93;;;1.50;99.90;;;;;;5031345;28;20395;-86
2021/03/14 02:08:05;;;;;;;1.67;1.05;;;1.50;99.90;;;;;;5023944;28;20441;-87
2021/03/14 02:10:37;;;;;;;0.90;0.90;;;1.50;99.90;;;;;;5047367;28;20471;-86
2021/03/14 02:13:21;;;;;;;0.98;0.98;;;1.50;99.90;;;;;;5028250;28;20045;-86
2021/03/14 02:16:01;;;;;;;0.90;0.90;;;1.50;99.90;;;;;;5043760;28;20118;-85
2021/03/14 02:18:38;;;;;;;0.90;0.90;;;1.50;99.90;;;;;;5042986;28;20076;-87
2021/03/14 02:21:05;;;;;;;0.90;0.90;;;1.50;99.90;;;;;;5043830;28;20328;-87
2021/03/14 02:23:42;;;;;;;2.80;1.05;;;1.50;99.90;;;;;;5046166;28;20064;-88
2021/03/14 02:26:18;;;;;;;0.90;0.90;;;1.40;99.90;;;;;;5041686;28;20134;-87
2021/03/14 02:28:47;;;;;;;1.15;1.13;;;1.40;99.90;;;;;;5042113;28;20499;-86
2021/03/14 02:31:20;;;;;;;1.00;1.00;;;1.30;99.90;;;;;;5044162;28;20063;-89
2021/03/14 02:33:53;;;;;;;1.80;0.93;;;1.30;99.90;;;;;;5047237;28;20067;-86
2021/03/14 02:36:21;;;;;;;0.90;0.90;;;1.20;99.90;;;;;;5042014;28;20083;-87
2021/03/14 02:38:50;;;;;;;1.13;1.13;;;1.10;99.90;;;;;;5031038;28;20149;-88
2021/03/14 02:41:18;;;;;;;2.40;1.05;;;1.10;99.90;;;;;;5057760;28;20045;-89
2021/03/14 02:43:46;;;;;;;1.00;1.00;;;1.00;99.90;;;;;;5055619;28;20096;-87
2021/03/14 02:46:15;;;;;;;1.10;1.10;;;1.00;99.90;;;;;;5055720;28;20184;-87
2021/03/14 02:48:43;;;;;;;3.28;0.98;;;1.00;99.90;;;;;;5029293;28;20060;-88
2021/03/14 02:51:10;;;;;;;2.47;1.30;;;1.00;99.90;;;;;;5066020;28;20053;-86
2021/03/14 02:53:38;;;;;;;1.30;1.20;;;1.00;99.90;;;;;;5022313;28;20053;-87
2021/03/14 02:56:05;;;;;;;1.70;1.23;;;1.00;99.90;;;;;;5037085;28;20049;-88
2021/03/14 02:58:36;;;;;;;1.10;1.10;;;1.00;99.90;;;;;;5038334;28;20049;-87
2021/03/14 03:01:06;;;;;;;1.40;1.30;;;1.00;99.90;;;;;;5031309;28;20136;-89
2021/03/14 03:03:43;;;;;;;1.50;1.40;;;1.00;99.90;;;;;;5029994;28;20041;-87
2021/03/14 03:06:10;;;;;;;2.72;1.45;;;1.10;99.90;;;;;;5047126;28;20059;-88
2021/03/14 03:08:38;;;;;;;1.75;1.65;;;1.10;99.90;;;;;;5002107;28;20037;-87
2021/03/14 03:11:13;;;;;;;2.90;1.70;;;1.10;99.90;;;;;;5049835;28;20048;-87
2021/03/14 03:13:41;;;;;;;1.67;1.58;;;1.10;99.90;;;;;;5054821;28;20415;-87
2021/03/14 03:16:15;;;;;;;1.70;1.60;;;1.10;99.90;;;;;;5050051;28;20095;-88
2021/03/14 03:18:43;;;;;;;1.58;1.48;;;1.10;99.90;;;;;;5039253;28;20055;-87
2021/03/14 03:21:12;;;;;;;1.70;1.60;;;1.10;99.90;;;;;;5054085;28;20471;-87
2021/03/14 03:23:42;;;;;;;2.75;1.95;;;1.10;99.90;;;;;;5033357;28;20044;-88
2021/03/14 03:26:09;;;;;;;1.85;1.75;;;1.20;99.90;;;;;;5017335;28;20045;-88
2021/03/14 03:28:39;;;;;;;1.88;1.63;;;1.20;99.90;;;;;;5034513;28;20054;-89
2021/03/14 03:31:06;;;;;;;2.28;2.08;;;1.20;99.90;;;;;;5034639;28;20179;-88
2021/03/14 03:33:37;;;;;;;2.58;2.38;;;1.30;99.90;;;;;;5041048;28;20049;-87
2021/03/14 03:36:04;;;;;;;3.00;2.50;;;1.20;99.90;;;;;;5039784;28;20103;-86
2021/03/14 03:38:39;;;;;;;3.30;3.00;;;1.20;99.90;;;;;;5040551;28;20053;-87
2021/03/14 03:41:09;;;;;;;3.65;2.17;;;1.20;99.90;;;;;;5029069;28;20049;-86
2021/03/14 03:43:37;;;;;;;3.60;2.72;;;1.30;99.90;;;;;;5024819;28;20055;-90
2021/03/14 03:46:10;;;;;;;3.35;3.05;;;1.20;99.90;;;;;;5041567;28;20049;-88
2021/03/14 03:48:45;;;;;;;3.30;2.88;;;1.30;99.90;;;;;;5050789;28;20104;-86
2021/03/14 03:51:27;;;;;;;7.20;3.30;;;1.30;99.90;;;;;;5061681;28;20048;-87
2021/03/14 03:53:57;;;;;;;6.25;3.53;;;1.30;99.90;;;;;;5032950;28;20136;-89
2021/03/14 03:56:26;;;;;;;5.88;3.30;;;1.30;99.90;;;;;;5035552;28;20115;-88
2021/03/14 03:58:53;;;;;;;5.15;3.50;;;1.30;99.90;;;;;;5024574;28;20060;-87
2021/03/14 04:01:21;;;;;;;4.80;3.20;;;1.30;99.90;;;;;;5030266;28;20060;-87
2021/03/14 04:03:51;;;;;;;5.97;3.42;;;1.20;99.90;;;;;;5050229;28;20052;-87
2021/03/14 04:06:19;;;;;;;5.30;2.88;;;1.20;99.90;;;;;;5035362;28;20460;-88
2021/03/14 04:08:47;;;;;;;3.65;2.72;;;1.10;99.90;;;;;;5039877;28;20045;-88
2021/03/14 04:11:20;;;;;;;6.72;3.47;;;1.10;99.90;;;;;;5046463;28;20069;-88
2021/03/14 04:13:51;;;;;;;5.05;3.13;;;1.00;99.90;;;;;;5036854;28;20079;-88
2021/03/14 04:16:26;;;;;;;6.70;2.70;;;0.90;99.90;;;;;;5045734;28;20071;-88
2021/03/14 04:18:58;;;;;;;4.40;2.92;;;0.80;99.90;;;;;;5005396;28;20354;-87
2021/03/14 04:21:26;;;;;;;4.55;2.95;;;0.80;99.90;;;;;;5048490;28;20474;-88
2021/03/14 04:23:54;;;;;;;5.22;2.75;;;0.80;99.90;;;;;;5023598;28;20049;-89
2021/03/14 04:26:22;;;;;;;4.93;3.28;;;0.70;99.90;;;;;;5035393;28;20385;-89
2021/03/14 04:28:57;;;;;;;4.15;3.00;;;0.70;99.90;;;;;;5049123;28;20053;-88
2021/03/14 04:31:26;;;;;;;5.15;3.38;;;0.70;99.90;;;;;;5040879;28;20144;-89
2021/03/14 04:34:09;;;;;;;3.20;2.67;;;0.70;99.90;;;;;;5005615;28;20144;-88
2021/03/14 04:36:39;;;;;;;5.22;2.60;;;0.70;99.90;;;;;;5032478;28;20064;-89
2021/03/14 04:39:09;;;;;;;5.55;2.90;;;0.70;99.90;;;;;;5045554;28;20049;-88
2021/03/14 04:41:46;;;;;;;7.55;2.83;;;0.70;99.90;;;;;;5055716;28;20060;-90
2021/03/14 04:44:18;;;;;;;4.68;2.90;;;0.70;99.90;;;;;;5055044;28;20100;-88
2021/03/14 04:46:45;;;;;;;5.20;2.92;;;0.60;99.90;;;;;;5053551;28;20044;-89
2021/03/14 04:49:13;;;;;;;3.70;3.28;;;0.60;99.90;;;;;;5049024;28;20056;-87
2021/03/14 04:51:44;;;;;;;6.28;3.47;;;0.60;99.90;;;;;;5046714;28;20076;-88
2021/03/14 04:54:14;;;;;;;7.00;3.30;;;0.60;99.90;;;;;;5048690;28;20076;-88
2021/03/14 04:56:45;;;;;;;4.05;3.10;;;0.60;99.90;;;;;;5055568;28;20075;-87
2021/03/14 04:59:15;;;;;;;5.50;3.30;;;0.60;99.90;;;;;;5050689;28;20049;-89
2021/03/14 05:01:50;;;;;;;5.85;2.63;;;0.60;99.90;;;;;;5067575;28;20299;-88
2021/03/14 05:04:26;;;;;;;8.25;3.72;;;0.60;99.90;;;;;;5041076;28;20129;-88
2021/03/14 05:06:56;;;;;;;7.05;3.53;;;0.60;99.90;;;;;;5048264;28;20056;-87
2021/03/14 05:09:24;;;;;;;8.15;3.50;;;0.60;99.90;;;;;;5020579;28;20045;-87
2021/03/14 05:12:12;;;;;;;6.18;4.18;;;0.50;99.90;;;;;;5008363;28;20124;-88
2021/03/14 05:14:47;;;;;;;6.18;4.32;;;0.50;99.90;;;;;;5045422;28;20128;-90
2021/03/14 05:17:16;;;;;;;3.63;3.03;;;0.60;99.90;;;;;;5035747;28;20053;-89
2021/03/14 05:19:46;;;;;;;3.13;2.47;;;0.60;99.90;;;;;;5034622;28;20064;-90
2021/03/14 05:22:14;;;;;;;4.25;3.10;;;0.60;99.90;;;;;;5038686;28;20045;-88
2021/03/14 05:24:42;;;;;;;3.67;3.00;;;0.60;99.90;;;;;;5041230;28;20059;-89
2021/03/14 05:27:12;;;;;;;11.38;4.28;;;0.60;99.90;;;;;;5056842;28;20069;-89
2021/03/14 05:29:45;;;;;;;4.70;3.75;;;0.60;99.90;;;;;;4999572;28;20046;-91
2021/03/14 05:32:12;;;;;;;5.45;3.75;;;0.60;99.90;;;;;;5062649;28;20056;-88
2021/03/14 05:34:44;;;;;;;4.03;3.33;;;0.60;99.90;;;;;;5068544;28;20049;-90
2021/03/14 05:37:15;;;;;;;3.95;3.53;;;0.60;99.90;;;;;;5050509;28;20053;-87
2021/03/14 05:39:45;;;;;;;5.05;3.88;;;0.60;99.90;;;;;;5050325;28;20183;-89
2021/03/14 05:42:12;;;;;;;7.65;4.40;;;0.60;99.90;;;;;;5025104;28;20103;-88
2021/03/14 05:44:42;;;;;;;9.60;4.85;;;0.70;99.90;;;;;;5038819;28;20053;-89
2021/03/14 05:47:11;;;;;;;7.45;4.78;;;0.70;99.90;;;;;;5038689;28;20132;-89
2021/03/14 05:49:40;;;;;;;7.32;4.60;;;0.80;99.90;;;;;;5047199;28;20431;-89
2021/03/14 05:52:19;;;;;;;12.02;5.07;;;0.80;99.90;;;;;;5037584;28;20057;-89
2021/03/14 05:54:51;;;;;;;10.38;5.00;;;0.90;99.90;;;;;;5037025;28;20054;-89
2021/03/14 05:57:19;;;;;;;7.70;4.93;;;0.90;99.90;;;;;;5042975;28;20439;-88
2021/03/14 05:59:51;;;;;;;8.68;5.03;;;0.90;99.90;;;;;;5030050;28;20041;-87
2021/03/14 06:02:19;;;;;;;7.63;4.90;;;0.90;99.90;;;;;;5049383;28;20055;-87
2021/03/14 06:04:52;;;;;;;6.07;4.47;;;0.90;99.90;;;;;;5024324;28;20452;-90
2021/03/14 06:07:21;;;;;;;8.45;4.28;;;0.90;99.90;;;;;;5030785;28;20049;-88
2021/03/14 06:09:48;;;;;;;11.00;4.57;;;0.90;99.90;;;;;;5052643;28;20048;-89
2021/03/14 06:12:15;;;;;;;7.13;4.35;;;0.90;99.90;;;;;;5036112;28;20052;-89
2021/03/14 06:14:45;;;;;;;6.55;4.82;;;0.90;99.90;;;;;;5016054;28;20133;-90
2021/03/14 06:17:12;;;;;;;17.35;5.35;;;0.90;99.90;;;;;;5030750;28;20111;-90
2021/03/14 06:19:53;;;;;;;11.10;5.38;;;1.00;99.90;;;;;;5044344;28;20045;-89
2021/03/14 06:22:38;;;;;;;12.45;4.30;;;1.00;99.90;;;;;;5032006;28;20052;-88
2021/03/14 06:25:06;;;;;;;7.38;3.90;;;1.10;99.90;;;;;;5034270;28;20372;-90
2021/03/14 06:27:56;;;;;;;6.78;4.00;;;1.10;99.90;;;;;;5037291;28;20045;-88
2021/03/14 06:30:48;;;;;;;13.48;5.28;;;1.10;99.90;;;;;;5024316;28;20352;-88
2021/03/14 06:33:18;;;;;;;13.80;5.55;;;1.10;99.90;;;;;;5035897;28;20090;-89
2021/03/14 06:36:00;;;;;;;6.57;4.32;;;1.10;99.90;;;;;;5018855;28;20436;-89
2021/03/14 06:38:36;;;;;;;15.63;4.47;;;1.20;99.90;;;;;;5036398;28;20111;-87
2021/03/14 06:41:09;;;;;;;8.07;4.35;;;1.20;99.90;;;;;;5036510;28;20076;-89
2021/03/14 06:43:44;;;;;;;11.55;5.38;;;1.30;99.90;;;;;;5021439;28;20064;-90
2021/03/14 06:46:40;;;;;;;14.23;4.50;;;1.30;99.90;;;;;;5036665;28;20452;-87
2021/03/14 06:49:19;;;;;;;12.45;3.60;;;1.30;99.90;;;;;;5018460;28;20132;-88
2021/03/14 06:51:51;;;;;;;12.70;4.50;;;1.30;99.90;;;;;;5042061;28;20050;-88
2021/03/14 06:54:27;;;;;;;;;;;1.40;99.90;;;;;;5035869;28;20423;-85
2021/03/14 06:57:01;;;;;;;7.97;3.47;;;1.40;99.90;;;;;;5038238;28;19921;-88
2021/03/14 06:59:30;;;;;;;12.32;3.60;;;1.50;99.90;;;;;;5036115;28;20045;-86
2021/03/14 07:02:02;;;;;;;10.07;4.07;;;1.50;99.90;;;;;;5036808;28;20045;-88
2021/03/14 07:04:41;;;;;;;10.55;4.70;;;1.50;99.90;;;;;;5024732;28;20045;-87
2021/03/14 07:07:29;;;;;;;8.45;3.67;;;1.50;99.90;;;;;;5033388;28;20042;-88
2021/03/14 07:10:08;;;;;;;7.47;3.65;;;1.50;99.90;;;;;;5011006;28;20106;-88
2021/03/14 07:12:47;;;;;;;8.30;3.30;;;1.50;99.90;;;;;;5030596;28;20044;-87
2021/03/14 07:15:19;;;;;;;8.25;3.38;;;1.50;99.90;;;;;;5021351;28;20050;-86
2021/03/14 07:17:51;;;;;;;8.38;3.53;;;1.60;99.90;;;;;;5050593;28;20478;-88
2021/03/14 07:20:22;;;;;;;18.05;3.30;;;1.70;99.90;;;;;;5037727;28;20046;-91
2021/03/14 07:23:05;;;;;;;6.80;2.97;;;1.70;99.90;;;;;;5040660;28;20049;-87
2021/03/14 07:25:50;;;;;;;7.68;3.25;;;1.70;99.90;;;;;;5047030;28;20044;-86
2021/03/14 07:29:05;;;;;;;;;;;;;;;;;;;;;
2021/03/14 07:31:59;;;;;;;9.63;3.30;;;2.30;99.90;;;;;;5032097;28;20053;-87
2021/03/14 07:34:32;;;;;;;11.10;3.05;;;2.70;99.90;;;;;;5011000;28;20107;-87
2021/03/14 07:37:03;;;;;;;5.88;2.70;;;2.80;99.90;;;;;;5008102;28;20368;-86
2021/03/14 07:39:32;;;;;;;6.18;2.33;;;2.80;99.90;;;;;;5041186;28;20049;-87
2021/03/14 07:42:03;;;;;;;8.32;2.63;;;2.90;99.90;;;;;;5048632;28;20061;-86
2021/03/14 07:44:52;;;;;;;7.10;2.70;;;2.80;99.90;;;;;;5020931;28;20065;-87
2021/03/14 07:47:42;;;;;;;10.15;3.03;;;2.60;99.90;;;;;;5019193;28;20447;-87
2021/03/14 07:50:28;;;;;;;8.65;3.00;;;2.40;99.90;;;;;;5016779;28;20053;-86
2021/03/14 07:53:11;;;;;;;11.63;3.30;;;2.20;99.90;;;;;;5027342;28;20045;-86
2021/03/14 07:55:59;;;;;;;9.15;3.38;;;2.10;99.90;;;;;;5042314;28;20084;-85
2021/03/14 07:58:55;;;;;;;4.15;2.95;;;2.00;99.90;;;;;;5022830;28;20049;-85
2021/03/14 08:01:40;;;;;;;8.93;3.80;;;1.80;99.90;;;;;;5042393;28;20059;-84
2021/03/14 08:04:35;;;;;;;10.23;3.55;;;1.80;99.90;;;;;;5010807;28;20064;-84
2021/03/14 08:07:36;;;;;;;9.68;2.90;;;2.00;99.90;;;;;;5023448;28;20049;-87
2021/03/14 08:11:07;;;;;;;8.85;3.10;;;2.30;99.90;;;;;;5014730;28;20103;-87
2021/03/14 08:13:47;;;;;;;5.28;2.50;;;2.60;99.90;;;;;;5012998;28;20425;-87
2021/03/14 08:16:16;;;;;;;10.75;2.92;;;3.30;99.90;;;;;;5025928;28;20441;-86
2021/03/14 08:18:51;;;;;;;6.40;2.70;;;3.90;99.90;;;;;;5012573;28;20048;-89
2021/03/14 08:21:20;;;;;;;6.80;3.22;;;4.10;99.90;;;;;;5043983;28;20456;-89
2021/03/14 08:24:31;;;;;;;5.82;2.10;;;4.20;99.90;;;;;;5011398;28;20057;-89
2021/03/14 08:27:07;;;;;;;10.68;2.33;;;4.20;99.90;;;;;;5016143;28;20056;-87
2021/03/14 08:29:42;;;;;;;5.85;2.47;;;4.10;99.90;;;;;;5016845;28;20487;-86
2021/03/14 08:32:22;;;;;;;8.25;2.20;;;4.10;99.90;;;;;;5035160;28;20064;-86
2021/03/14 08:35:06;;;;;;;6.32;2.03;;;4.70;99.90;;;;;;5025215;28;20056;-86
2021/03/14 08:37:33;;;;;;;12.65;2.88;;;4.40;99.90;;;;;;5020859;28;20045;-86
2021/03/14 08:40:31;;;;;;;10.82;2.33;;;4.30;99.90;;;;;;5035595;28;20484;-87
2021/03/14 08:43:02;;;;;;;6.78;2.00;;;4.50;99.90;;;;;;5023276;28;20048;-87
2021/03/14 08:45:30;;;;;;;5.72;1.90;;;4.50;99.90;;;;;;5019963;28;20401;-85
2021/03/14 08:48:05;;;;;;;7.30;2.20;;;4.40;99.90;;;;;;5012966;28;20177;-88
2021/03/14 08:50:32;;;;;;;4.15;1.80;;;4.40;99.90;;;;;;5034723;28;20064;-87
2021/03/14 08:53:05;;;;;;;4.43;1.77;;;4.30;99.90;;;;;;5033924;28;20081;-86
2021/03/14 08:55:31;;;;;;;8.23;2.13;;;4.20;99.90;;;;;;5038054;28;20045;-85
2021/03/14 08:58:15;;;;;;;5.22;1.67;;;4.00;99.90;;;;;;5034387;28;20122;-86
2021/03/14 09:00:42;;;;;;;2.58;1.60;;;3.70;99.90;;;;;;5043999;28;20053;-84
2021/03/14 09:03:11;;;;;;;7.15;1.60;;;3.70;99.90;;;;;;5038038;28;20045;-86
2021/03/14 09:06:23;;;;;;;5.78;1.60;;;3.60;99.90;;;;;;5039813;28;20065;-86
2021/03/14 09:08:57;;;;;;;6.70;2.03;;;3.60;99.90;;;;;;5040264;28;20057;-88
2021/03/14 09:11:51;;;;;;;9.88;2.35;;;3.70;99.90;;;;;;5039237;28;20088;-86
2021/03/14 09:14:35;;;;;;;4.45;1.92;;;3.80;99.90;;;;;;5033846;28;20125;-87
2021/03/14 09:17:06;;;;;;;2.70;2.00;;;3.90;99.90;;;;;;5007787;28;20434;-87
2021/03/14 09:19:54;;;;;;;5.40;1.80;;;3.90;99.90;;;;;;5026737;28;20530;-86
2021/03/14 09:22:29;;;;;;;3.17;1.70;;;3.80;99.90;;;;;;5033214;28;20049;-84
2021/03/14 09:25:03;;;;;;;3.65;1.95;;;3.80;99.90;;;;;;5033153;28;20365;-86
2021/03/14 09:27:37;;;;;;;4.88;1.58;;;3.60;99.90;;;;;;5016144;28;20054;-85
2021/03/14 09:30:13;;;;;;;4.47;1.60;;;3.50;99.90;;;;;;5033014;28;20049;-85
2021/03/14 09:32:42;;;;;;;16.95;5.95;;;3.60;99.90;;;;;;5015872;28;20089;-87
2021/03/14 09:35:12;;;;;;;4.03;1.60;;;3.60;99.90;;;;;;5033353;28;20111;-86
2021/03/14 09:37:40;;;;;;;6.65;1.90;;;3.40;99.90;;;;;;5012739;28;20050;-86
2021/03/14 09:40:26;;;;;;;4.55;2.03;;;3.50;99.90;;;;;;5012967;28;20100;-86
2021/03/14 09:43:15;;;;;;;8.23;1.80;;;3.90;99.90;;;;;;5013495;28;20050;-85
2021/03/14 09:45:49;;;;;;;3.85;1.40;;;4.40;99.90;;;;;;5013253;28;20050;-84
2021/03/14 09:48:18;;;;;;;8.20;1.58;;;4.50;99.90;;;;;;5026136;28;20046;-87
2021/03/14 09:50:51;;;;;;;3.67;1.63;;;4.50;99.90;;;;;;5025495;28;20084;-86
2021/03/14 09:53:22;;;;;;;4.38;1.77;;;5.10;99.90;;;;;;5032948;28;20119;-86
2021/03/14 09:55:58;;;;;;;2.50;1.20;;;6.30;99.90;;;;;;5032824;28;20080;-87
2021/03/14 09:58:26;;;;;;;3.25;1.13;;;7.50;99.90;;;;;;5037933;28;20287;-86
2021/03/14 10:00:55;;;;;;;2.72;0.85;;;8.70;99.90;;;;;;5042870;28;20057;-85
2021/03/14 10:03:27;;;;;;;7.75;1.13;;;9.10;96.80;;;;;;5028983;28;20065;-86
2021/03/14 10:06:03;;;;;;;2.57;1.10;;;8.50;96.50;;;;;;5013133;28;20053;-86
2021/03/14 10:08:30;;;;;;;5.05;1.30;;;8.20;99.90;;;;;;5033177;28;20141;-87
2021/03/14 10:11:04;;;;;;;3.88;1.23;;;8.30;97.70;;;;;;5036321;28;20404;-86
2021/03/14 10:13:32;;;;;;;2.58;1.40;;;8.30;99.50;;;;;;5034976;28;20395;-85
2021/03/14 10:16:10;;;;;;;5.78;2.33;;;8.60;98.00;;;;;;5036092;28;20375;-86
2021/03/14 10:18:38;;;;;;;6.35;1.75;;;8.20;95.70;;;;;;5036036;28;20072;-87
2021/03/14 10:21:22;;;;;;;5.78;2.00;;;7.50;97.00;;;;;;5034893;28;20049;-88
2021/03/14 10:23:52;;;;;;;6.45;2.05;;;7.00;99.90;;;;;;5017017;28;20168;-87
2021/03/14 10:26:21;;;;;;;4.22;1.65;;;6.50;99.90;;;;;;5015951;28;20046;-87
2021/03/14 10:28:47;;;;;;;5.03;1.40;;;5.90;99.90;;;;;;4999122;28;20057;-86
2021/03/14 10:31:17;;;;;;;6.20;1.65;;;5.70;99.90;;;;;;5015768;28;20127;-86
2021/03/14 10:33:45;;;;;;;6.53;1.90;;;5.70;99.90;;;;;;5005502;28;20387;-87
2021/03/14 10:36:15;;;;;;;8.02;2.30;;;5.80;99.90;;;;;;5035991;28;20107;-85
2021/03/14 10:38:49;;;;;;;3.78;1.35;;;6.00;99.90;;;;;;5035779;28;20049;-87
2021/03/14 10:41:17;;;;;;;5.90;1.85;;;6.00;99.90;;;;;;5036006;28;20100;-86
2021/03/14 10:43:55;;;;;;;4.10;1.77;;;6.00;99.90;;;;;;5034022;28;20399;-85
2021/03/14 10:46:51;;;;;;;5.53;1.88;;;6.20;99.90;;;;;;5033177;28;20122;-85
2021/03/14 10:49:24;;;;;;;3.85;1.50;;;7.40;99.90;;;;;;5016719;28;20080;-86
2021/03/14 10:51:55;;;;;;;2.92;1.55;;;8.60;93.70;;;;;;5003858;28;20201;-86
2021/03/14 10:54:22;;;;;;;6.18;2.15;;;9.10;89.90;;;;;;5012310;28;20483;-86
2021/03/14 10:56:50;;;;;;;4.22;1.17;;;9.80;83.00;;;;;;5034068;28;20057;-85
2021/03/14 10:59:33;;;;;;;4.25;1.10;;;9.10;76.80;;;;;;5048745;28;20098;-86
2021/03/14 11:02:34;;;;;;;5.82;1.35;;;8.40;84.00;;;;;;5040405;28;20059;-84
2021/03/14 11:05:03;;;;;;;2.28;1.25;;;8.90;84.90;;;;;;5018972;28;20072;-85
2021/03/14 11:07:34;;;;;;;3.50;1.30;;;9.20;78.20;;;;;;5015012;28;20049;-84
2021/03/14 11:10:10;;;;;;;2.92;1.33;;;9.60;77.40;;;;;;5015260;28;20061;-86
2021/03/14 11:12:39;;;;;;;3.67;1.30;;;9.50;75.30;;;;;;5027009;28;20049;-85
2021/03/14 11:15:25;;;;;;;5.00;1.63;;;10.40;73.50;;;;;;5033748;28;20111;-84
2021/03/14 11:17:55;;;;;;;3.75;1.65;;;10.50;67.70;;;;;;5034756;28;20073;-84
2021/03/14 11:20:23;;;;;;;5.82;2.00;;;9.90;70.80;;;;;;5013941;28;20062;-85
2021/03/14 11:23:00;;;;;;;5.45;2.35;;;9.60;71.20;;;;;;5004973;28;20097;-84
2021/03/14 11:25:29;;;;;;;8.68;4.47;;;9.40;75.40;;;;;;5017396;28;20150;-84
2021/03/14 11:27:58;;;;;;;5.22;2.28;;;9.60;74.40;;;;;;5023521;28;20046;-85
2021/03/14 11:30:29;;;;;;;;;;;9.60;71.00;;;;;;5041241;28;20057;-85
2021/03/14 11:32:56;;;;;;;4.43;1.42;;;9.20;72.50;;;;;;5016563;28;20299;-86
2021/03/14 11:35:22;;;;;;;7.30;3.13;;;8.80;73.10;;;;;;4997558;28;20056;-86
2021/03/14 11:37:49;;;;;;;7.95;1.85;;;8.40;74.70;;;;;;5014789;28;20046;-84
2021/03/14 11:40:18;;;;;;;5.47;2.08;;;7.60;77.80;;;;;;5016642;28;20046;-86
2021/03/14 11:42:47;;;;;;;6.32;2.60;;;7.10;90.00;;;;;;5055405;23;20064;-85
2021/03/14 11:45:15;;;;;;;6.38;2.20;;;6.80;88.50;;;;;;5001107;28;20051;-84
2021/03/14 11:47:44;;;;;;;5.95;2.10;;;6.50;92.70;;;;;;5005575;28;20094;-85
2021/03/14 11:50:11;;;;;;;7.20;2.15;;;6.10;97.30;;;;;;5026894;28;20161;-84
2021/03/14 11:52:42;;;;;;;5.40;1.98;;;6.10;99.90;;;;;;5013470;28;20141;-85
2021/03/14 11:55:09;;;;;;;5.40;1.70;;;5.90;99.90;;;;;;5012094;28;20465;-86
2021/03/14 11:57:37;;;;;;;3.55;1.55;;;5.70;99.90;;;;;;5014142;28;20152;-84
2021/03/14 12:00:08;;;;;;;6.47;1.73;;;5.70;99.90;;;;;;4996920;28;20519;-86
2021/03/14 12:02:36;;;;;;;4.13;1.80;;;5.70;99.90;;;;;;5014136;28;20050;-89
2021/03/14 12:05:07;;;;;;;8.00;2.08;;;5.50;99.90;;;;;;5014195;28;20065;-86
2021/03/14 12:07:36;;;;;;;5.32;2.20;;;5.20;99.90;;;;;;5014533;28;20049;-83
2021/03/14 12:10:03;;;;;;;5.68;2.33;;;5.00;99.90;;;;;;5014068;28;20088;-87
2021/03/14 12:12:34;;;;;;;6.38;2.50;;;5.00;99.90;;;;;;4996691;28;20108;-85
2021/03/14 12:15:05;;;;;;;6.25;2.38;;;4.80;99.90;;;;;;5012547;28;20143;-85
2021/03/14 12:17:34;;;;;;;10.68;2.40;;;4.50;99.90;;;;;;5013139;28;20054;-84
2021/03/14 12:20:03;;;;;;;5.32;1.80;;;4.40;99.90;;;;;;5013637;28;20141;-87
2021/03/14 12:22:32;;;;;;;4.70;2.28;;;4.30;99.90;;;;;;5014737;28;20100;-84
2021/03/14 12:25:02;;;;;;;8.40;3.30;;;4.20;99.90;;;;;;5000632;28;20065;-85
2021/03/14 12:27:31;;;;;;;10.55;2.58;;;3.90;99.90;;;;;;5016988;28;20494;-84
2021/03/14 12:30:00;;;;;;;9.13;2.47;;;3.70;99.90;;;;;;5032829;28;20114;-84
2021/03/14 12:32:27;;;;;;;7.45;2.70;;;3.60;99.90;;;;;;5033447;28;20130;-85
2021/03/14 12:34:54;;;;;;;15.05;3.00;;;3.40;99.90;;;;;;4987025;28;20334;-86
2021/03/14 12:37:21;;;;;;;8.90;2.45;;;3.40;99.90;;;;;;4997060;28;20440;-86
2021/03/14 12:39:48;;;;;;;8.38;2.85;;;3.20;99.90;;;;;;5013591;28;20053;-86
2021/03/14 12:42:14;;;;;;;9.25;3.10;;;3.10;99.90;;;;;;5013485;28;20453;-86
2021/03/14 12:44:41;;;;;;;10.50;2.92;;;3.10;99.90;;;;;;5012665;28;20073;-86
2021/03/14 12:47:07;;;;;;;9.13;3.38;;;3.10;99.90;;;;;;5013540;28;20192;-86
2021/03/14 12:49:37;;;;;;;12.65;3.08;;;3.10;99.90;;;;;;5003092;28;20120;-87
2021/03/14 12:52:03;;;;;;;15.80;2.70;;;3.20;99.90;;;;;;4998357;28;20489;-87
2021/03/14 12:54:32;;;;;;;8.02;2.53;;;3.20;99.90;;;;;;4993732;28;20113;-87
2021/03/14 12:56:59;;;;;;;9.98;2.75;;;3.20;99.90;;;;;;4995284;28;20100;-86
2021/03/14 12:59:35;;;;;;;9.45;2.75;;;3.30;99.90;;;;;;5003865;28;20058;-87
2021/03/14 13:02:02;;;;;;;13.30;3.72;;;3.30;99.90;;;;;;5013891;28;20108;-85
2021/03/14 13:04:29;;;;;;;11.82;4.32;;;3.40;99.90;;;;;;5002716;28;20461;-86
2021/03/14 13:06:57;;;;;;;19.92;7.47;;;3.30;99.90;;;;;;5013891;28;20049;-86
2021/03/14 13:09:26;;;;;;;37.90;15.48;;;3.40;99.90;;;;;;5007829;28;20417;-87
2021/03/14 13:12:00;;;;;;;16.70;5.70;;;3.20;99.90;;;;;;4993754;28;20459;-86
2021/03/14 13:14:29;;;;;;;10.75;4.55;;;3.20;99.90;;;;;;4993093;28;20125;-87
2021/03/14 13:16:57;;;;;;;7.70;3.70;;;3.30;99.90;;;;;;4994025;28;20128;-87
2021/03/14 13:19:24;;;;;;;11.68;2.88;;;3.40;99.90;;;;;;5005842;28;20065;-86
2021/03/14 13:21:50;;;;;;;8.15;3.30;;;3.60;99.90;;;;;;4977481;28;20066;-87
2021/03/14 13:24:17;;;;;;;9.40;3.20;;;4.20;99.90;;;;;;4999360;28;20050;-86
2021/03/14 13:26:44;;;;;;;5.47;3.08;;;4.80;99.90;;;;;;5026618;28;20046;-87